Terminal Aerodrome Forecast
Issued by NWS

Home | Current Version | Previous Version | Text Only | Print | Product List | Glossary On
Versions: 1 2 3 4 5 6 7 8 9 10 11 12 13 14 15 16 17 18 19 20 21 22 23 24 25 26 27 28 29 30 31 32 33 34 35 36 37 38 39
000
FTAK31 PAFA 261002 AAA
TAFABT
TAF AMD
PABT 261002Z 2610/2706 00000KT 6SM -SN OVC025
      TEMPO 2610/2611 3SM -SHSN OVC015
     FM261100 VRB03KT 3SM -SN BR OVC025
     FM261400 VRB03KT 2SM -SN BR OVC015
     FM270000 VRB03KT 4SM -SN BR OVC020=

USA.gov is the U.S. government's official web portal to all federal, state and local government web resources and services.